Accueil
METAR-TAF:

METAR-TAF

Aéroports :

Base aérienne Volkel-Uden

Uden, Pays-Bas

latitude: 51-39N, longitude: 005-42E, altitude: 22 m

Observation

Le bulletin a été fait il y a 32 minutes, à 22:25 UTC
Vent 5 kt de nord
Température 3°C
Humidité 70%
Pression 1023 hPa
Visibilité 10 km ou plus
Nuages épars à une hauteur de 24000 ft

METAR: EHVK 222225Z AUTO 35005KT 9999 SCT240 03/M02 Q1023 BLU

Heure: 00:57 (22:57 UTC)

Prévision

Le bulletin a été fait il y a 2 heures et 48 minutes, à 20:09 UTC
Prévision valable du 22 à 21 UTC au 23 à 09 UTC
Vent 4 kt de nord
Visibilité 10 km ou plus
pas de nuages en-dessous de 1500 mètres et pas de cumulonimbus.
Probabilité 30% :
Temporairement
du 23 à 03 UTC au 23 à 06 UTC
Visibilité: 3000 m
Brouillard mince, brume,

TAF: EHVK 222009Z 2221/2309 01004KT CAVOK PROB30 TEMPO 2303/2306 3000 MIFG BR

Observations et prévisions météorologiques de plus de 4000 aéroports (messages METAR et TAF).

Les stations disponibles sont représentées par des disques jaunes et rouges sur la carte.

Passer la souris dessus pour voir le nom de la station.

Cliquer dessus pour voir les observations et prévisions météorologiques.

Pour changer de carte: cliquez sur les boutons verts avec une croix noire pour zoomer, sur le bouton vert avec un tiret pour effectuer un zoom arrière, ou sur les flèches vertes pour les cartes adjacentes.


METAR-TAF: